Terminal Aerodrome Forecast
Issued by NWS Wilmington, OH

Current Version | Previous Version | Text Only | Print | Product List | Glossary Off
Versions: 1 2 3 4 5 6 7 8 9 10 11 12 13 14 15 16 17 18 19 20 21 22 23 24

000
FTUS41 KILN 171000 AAB
TAFILN
TAF AMD
KILN 171044Z 1711/1806 00000KT 3SM BR OVC030
     FM171300 VRB03KT P6SM BKN035
     FM171800 26004KT P6SM SCT035 BKN120
     FM172300 35004KT P6SM BKN100=

USA.gov is the U.S. government's official web portal to all federal, state and local government web resources and services.